sensor_id;sensor_type;location;lat;lon;timestamp;pressure;altitude;pressure_sealevel;temperature;humidity
7309;BME280;3695;53.330;9.876;2023-04-02T00:01:17;101876.56;;;1.37;100.00
7309;BME280;3695;53.330;9.876;2023-04-02T00:06:53;101889.94;;;1.57;100.00
7309;BME280;3695;53.330;9.876;2023-04-02T00:09:31;101898.13;;;1.66;100.00
7309;BME280;3695;53.330;9.876;2023-04-02T00:12:11;101910.19;;;1.60;100.00
7309;BME280;3695;53.330;9.876;2023-04-02T00:14:45;101900.34;;;1.40;100.00
7309;BME280;3695;53.330;9.876;2023-04-02T00:17:12;101908.13;;;1.43;100.00
7309;BME280;3695;53.330;9.876;2023-04-02T00:19:42;101918.56;;;1.46;100.00
7309;BME280;3695;53.330;9.876;2023-04-02T00:22:16;101917.09;;;1.42;100.00
7309;BME280;3695;53.330;9.876;2023-04-02T00:24:43;101922.38;;;1.32;100.00
7309;BME280;3695;53.330;9.876;2023-04-02T00:27:11;101925.09;;;1.42;100.00
7309;BME280;3695;53.330;9.876;2023-04-02T00:29:44;101927.31;;;1.37;100.00
7309;BME280;3695;53.330;9.876;2023-04-02T00:32:17;101932.94;;;1.34;100.00
7309;BME280;3695;53.330;9.876;2023-04-02T00:34:45;101934.09;;;1.20;100.00
7309;BME280;3695;53.330;9.876;2023-04-02T00:37:17;101944.31;;;1.36;100.00
7309;BME280;3695;53.330;9.876;2023-04-02T00:39:49;101945.28;;;1.46;100.00
7309;BME280;3695;53.330;9.876;2023-04-02T00:42:16;101946.97;;;1.47;100.00
7309;BME280;3695;53.330;9.876;2023-04-02T00:44:44;101952.22;;;1.37;100.00
7309;BME280;3695;53.330;9.876;2023-04-02T00:47:14;101961.88;;;1.49;100.00
7309;BME280;3695;53.330;9.876;2023-04-02T00:49:43;101967.63;;;1.45;100.00
7309;BME280;3695;53.330;9.876;2023-04-02T00:52:12;101962.03;;;1.37;100.00
7309;BME280;3695;53.330;9.876;2023-04-02T00:54:44;101964.69;;;1.48;100.00
7309;BME280;3695;53.330;9.876;2023-04-02T00:57:14;101970.50;;;1.21;100.00
7309;BME280;3695;53.330;9.876;2023-04-02T00:59:50;101975.00;;;1.41;100.00
7309;BME280;3695;53.330;9.876;2023-04-02T01:02:22;101973.94;;;1.44;100.00
7309;BME280;3695;53.330;9.876;2023-04-02T01:04:52;101973.72;;;1.56;100.00
7309;BME280;3695;53.330;9.876;2023-04-02T01:07:22;101979.47;;;1.52;100.00
7309;BME280;3695;53.330;9.876;2023-04-02T01:10:07;101986.38;;;1.54;100.00
7309;BME280;3695;53.330;9.876;2023-04-02T01:12:48;101980.97;;;1.45;100.00
7309;BME280;3695;53.330;9.876;2023-04-02T01:15:20;101991.13;;;1.72;100.00
7309;BME280;3695;53.330;9.876;2023-04-02T01:18:12;101994.00;;;1.59;100.00
7309;BME280;3695;53.330;9.876;2023-04-02T01:23:45;101995.44;;;1.63;100.00
7309;BME280;3695;53.330;9.876;2023-04-02T01:26:24;102005.72;;;1.47;100.00
7309;BME280;3695;53.330;9.876;2023-04-02T01:29:01;102008.41;;;1.68;100.00
7309;BME280;3695;53.330;9.876;2023-04-02T01:31:29;102011.91;;;1.68;100.00
7309;BME280;3695;53.330;9.876;2023-04-02T01:33:57;102014.53;;;1.58;100.00
7309;BME280;3695;53.330;9.876;2023-04-02T01:36:32;102020.66;;;1.49;100.00
7309;BME280;3695;53.330;9.876;2023-04-02T01:39:08;102023.53;;;1.57;100.00
7309;BME280;3695;53.330;9.876;2023-04-02T01:41:42;102022.03;;;1.65;100.00
7309;BME280;3695;53.330;9.876;2023-04-02T01:44:15;102037.72;;;1.58;100.00
7309;BME280;3695;53.330;9.876;2023-04-02T01:46:47;102036.94;;;1.67;100.00
7309;BME280;3695;53.330;9.876;2023-04-02T01:49:16;102043.34;;;1.55;100.00
7309;BME280;3695;53.330;9.876;2023-04-02T01:51:46;102044.25;;;1.65;100.00
7309;BME280;3695;53.330;9.876;2023-04-02T01:54:18;102049.66;;;1.75;100.00
7309;BME280;3695;53.330;9.876;2023-04-02T01:56:45;102049.41;;;1.57;100.00
7309;BME280;3695;53.330;9.876;2023-04-02T01:59:18;102054.94;;;1.65;100.00
7309;BME280;3695;53.330;9.876;2023-04-02T02:01:50;102059.03;;;1.69;100.00
7309;BME280;3695;53.330;9.876;2023-04-02T02:04:18;102052.31;;;1.54;100.00
7309;BME280;3695;53.330;9.876;2023-04-02T02:06:45;102055.53;;;1.37;100.00
7309;BME280;3695;53.330;9.876;2023-04-02T02:09:16;102061.31;;;1.53;100.00
7309;BME280;3695;53.330;9.876;2023-04-02T02:11:47;102070.91;;;1.55;100.00
7309;BME280;3695;53.330;9.876;2023-04-02T02:14:18;102078.13;;;1.44;100.00
7309;BME280;3695;53.330;9.876;2023-04-02T02:16:45;102067.72;;;1.30;100.00
7309;BME280;3695;53.330;9.876;2023-04-02T02:19:21;102071.09;;;1.32;100.00
7309;BME280;3695;53.330;9.876;2023-04-02T02:21:50;102073.00;;;1.41;100.00
7309;BME280;3695;53.330;9.876;2023-04-02T02:24:20;102075.75;;;1.18;100.00
7309;BME280;3695;53.330;9.876;2023-04-02T02:26:54;102078.34;;;1.41;100.00
7309;BME280;3695;53.330;9.876;2023-04-02T02:29:25;102081.19;;;1.28;100.00
7309;BME280;3695;53.330;9.876;2023-04-02T02:31:54;102092.47;;;1.32;100.00
7309;BME280;3695;53.330;9.876;2023-04-02T02:34:23;102088.09;;;1.31;100.00
7309;BME280;3695;53.330;9.876;2023-04-02T02:36:58;102095.16;;;1.20;100.00
7309;BME280;3695;53.330;9.876;2023-04-02T02:39:33;102101.44;;;1.31;100.00
7309;BME280;3695;53.330;9.876;2023-04-02T02:42:03;102108.91;;;1.16;100.00
7309;BME280;3695;53.330;9.876;2023-04-02T02:44:40;102111.78;;;1.24;100.00
7309;BME280;3695;53.330;9.876;2023-04-02T02:47:09;102113.44;;;1.36;100.00
7309;BME280;3695;53.330;9.876;2023-04-02T02:49:40;102117.25;;;1.22;100.00
7309;BME280;3695;53.330;9.876;2023-04-02T02:52:13;102119.09;;;1.11;100.00
7309;BME280;3695;53.330;9.876;2023-04-02T02:54:43;102127.97;;;1.11;100.00
7309;BME280;3695;53.330;9.876;2023-04-02T02:57:13;102136.81;;;1.23;100.00
7309;BME280;3695;53.330;9.876;2023-04-02T02:59:43;102142.00;;;1.24;100.00
7309;BME280;3695;53.330;9.876;2023-04-02T03:02:10;102143.34;;;1.30;100.00
7309;BME280;3695;53.330;9.876;2023-04-02T03:04:38;102148.31;;;1.23;100.00
7309;BME280;3695;53.330;9.876;2023-04-02T03:07:06;102145.06;;;1.20;100.00
7309;BME280;3695;53.330;9.876;2023-04-02T03:09:37;102153.91;;;1.20;100.00
7309;BME280;3695;53.330;9.876;2023-04-02T03:12:22;102159.63;;;1.27;100.00
7309;BME280;3695;53.330;9.876;2023-04-02T03:14:58;102163.75;;;1.20;100.00
7309;BME280;3695;53.330;9.876;2023-04-02T03:17:29;102172.13;;;1.26;100.00
7309;BME280;3695;53.330;9.876;2023-04-02T03:20:02;102176.84;;;1.23;100.00
7309;BME280;3695;53.330;9.876;2023-04-02T03:22:34;102171.41;;;1.24;100.00
7309;BME280;3695;53.330;9.876;2023-04-02T03:25:06;102181.84;;;1.16;100.00
7309;BME280;3695;53.330;9.876;2023-04-02T03:27:45;102186.41;;;1.37;100.00
7309;BME280;3695;53.330;9.876;2023-04-02T03:30:26;102193.75;;;1.12;100.00
7309;BME280;3695;53.330;9.876;2023-04-02T03:32:55;102193.97;;;1.20;100.00
7309;BME280;3695;53.330;9.876;2023-04-02T03:35:30;102210.97;;;1.19;100.00
7309;BME280;3695;53.330;9.876;2023-04-02T03:37:59;102219.44;;;1.36;100.00
7309;BME280;3695;53.330;9.876;2023-04-02T03:40:30;102219.22;;;1.16;100.00
7309;BME280;3695;53.330;9.876;2023-04-02T03:43:02;102211.47;;;1.13;100.00
7309;BME280;3695;53.330;9.876;2023-04-02T03:45:35;102218.63;;;1.24;100.00
7309;BME280;3695;53.330;9.876;2023-04-02T03:48:08;102226.03;;;1.09;100.00
7309;BME280;3695;53.330;9.876;2023-04-02T03:50:41;102235.50;;;1.24;100.00
7309;BME280;3695;53.330;9.876;2023-04-02T03:53:11;102236.94;;;1.29;100.00
7309;BME280;3695;53.330;9.876;2023-04-02T03:55:39;102239.13;;;1.23;100.00
7309;BME280;3695;53.330;9.876;2023-04-02T03:58:10;102245.44;;;1.34;100.00
7309;BME280;3695;53.330;9.876;2023-04-02T04:00:43;102248.59;;;1.27;100.00
7309;BME280;3695;53.330;9.876;2023-04-02T04:03:14;102252.59;;;1.33;100.00
7309;BME280;3695;53.330;9.876;2023-04-02T04:05:45;102258.41;;;1.38;100.00
7309;BME280;3695;53.330;9.876;2023-04-02T04:08:16;102257.59;;;1.49;100.00
7309;BME280;3695;53.330;9.876;2023-04-02T04:10:43;102258.16;;;1.41;100.00
7309;BME280;3695;53.330;9.876;2023-04-02T04:13:13;102266.19;;;1.41;100.00
7309;BME280;3695;53.330;9.876;2023-04-02T04:15:47;102279.66;;;1.40;100.00
7309;BME280;3695;53.330;9.876;2023-04-02T04:18:24;102278.22;;;1.47;100.00
7309;BME280;3695;53.330;9.876;2023-04-02T04:21:00;102284.78;;;1.43;100.00
7309;BME280;3695;53.330;9.876;2023-04-02T04:23:31;102286.22;;;1.58;100.00
7309;BME280;3695;53.330;9.876;2023-04-02T04:25:59;102294.97;;;1.60;100.00
7309;BME280;3695;53.330;9.876;2023-04-02T04:28:33;102300.44;;;1.70;100.00
7309;BME280;3695;53.330;9.876;2023-04-02T04:31:12;102297.41;;;1.52;100.00
7309;BME280;3695;53.330;9.876;2023-04-02T04:33:44;102305.69;;;1.49;100.00
7309;BME280;3695;53.330;9.876;2023-04-02T04:36:20;102314.78;;;1.46;100.00
7309;BME280;3695;53.330;9.876;2023-04-02T04:38:52;102312.97;;;1.58;100.00
7309;BME280;3695;53.330;9.876;2023-04-02T04:41:25;102318.78;;;1.52;100.00
7309;BME280;3695;53.330;9.876;2023-04-02T04:43:55;102321.94;;;1.46;100.00
7309;BME280;3695;53.330;9.876;2023-04-02T04:46:29;102333.59;;;1.45;100.00
7309;BME280;3695;53.330;9.876;2023-04-02T04:49:01;102332.16;;;1.63;100.00
7309;BME280;3695;53.330;9.876;2023-04-02T04:51:32;102341.50;;;1.46;100.00
7309;BME280;3695;53.330;9.876;2023-04-02T04:54:02;102337.72;;;1.60;100.00
7309;BME280;3695;53.330;9.876;2023-04-02T04:56:29;102339.19;;;1.53;100.00
7309;BME280;3695;53.330;9.876;2023-04-02T04:59:00;102346.72;;;1.59;100.00
7309;BME280;3695;53.330;9.876;2023-04-02T05:01:33;102352.56;;;1.53;100.00
7309;BME280;3695;53.330;9.876;2023-04-02T05:04:08;102357.91;;;1.64;100.00
7309;BME280;3695;53.330;9.876;2023-04-02T05:06:39;102362.28;;;1.43;100.00
7309;BME280;3695;53.330;9.876;2023-04-02T05:09:13;102370.66;;;1.61;100.00
7309;BME280;3695;53.330;9.876;2023-04-02T05:11:44;102379.53;;;1.50;100.00
7309;BME280;3695;53.330;9.876;2023-04-02T05:14:20;102375.63;;;1.76;100.00
7309;BME280;3695;53.330;9.876;2023-04-02T05:16:53;102383.66;;;1.65;100.00
7309;BME280;3695;53.330;9.876;2023-04-02T05:19:24;102384.88;;;1.72;100.00
7309;BME280;3695;53.330;9.876;2023-04-02T05:21:57;102402.13;;;1.79;100.00
7309;BME280;3695;53.330;9.876;2023-04-02T05:24:34;102408.31;;;1.80;100.00
7309;BME280;3695;53.330;9.876;2023-04-02T05:27:11;102402.59;;;1.84;100.00
7309;BME280;3695;53.330;9.876;2023-04-02T05:29:43;102414.75;;;1.88;100.00
7309;BME280;3695;53.330;9.876;2023-04-02T05:32:16;102407.56;;;1.89;100.00
7309;BME280;3695;53.330;9.876;2023-04-02T05:34:47;102403.56;;;1.83;100.00
7309;BME280;3695;53.330;9.876;2023-04-02T05:37:19;102418.78;;;1.94;100.00
7309;BME280;3695;53.330;9.876;2023-04-02T05:39:51;102419.16;;;1.89;100.00
7309;BME280;3695;53.330;9.876;2023-04-02T05:42:21;102424.25;;;1.93;100.00
7309;BME280;3695;53.330;9.876;2023-04-02T05:44:57;102426.19;;;1.91;100.00
7309;BME280;3695;53.330;9.876;2023-04-02T05:47:28;102425.56;;;1.87;100.00
7309;BME280;3695;53.330;9.876;2023-04-02T05:50:10;102427.50;;;1.85;100.00
7309;BME280;3695;53.330;9.876;2023-04-02T05:52:45;102431.41;;;2.03;100.00
7309;BME280;3695;53.330;9.876;2023-04-02T05:55:28;102432.00;;;2.07;100.00
7309;BME280;3695;53.330;9.876;2023-04-02T05:58:01;102438.09;;;1.98;100.00
7309;BME280;3695;53.330;9.876;2023-04-02T06:00:45;102445.16;;;1.99;100.00
7309;BME280;3695;53.330;9.876;2023-04-02T06:03:18;102447.69;;;1.89;100.00
7309;BME280;3695;53.330;9.876;2023-04-02T06:05:49;102459.25;;;2.01;100.00
7309;BME280;3695;53.330;9.876;2023-04-02T06:08:20;102458.41;;;2.11;100.00
7309;BME280;3695;53.330;9.876;2023-04-02T06:10:50;102462.16;;;2.20;100.00
7309;BME280;3695;53.330;9.876;2023-04-02T06:13:20;102467.50;;;2.09;100.00
7309;BME280;3695;53.330;9.876;2023-04-02T06:15:47;102470.91;;;2.22;100.00
7309;BME280;3695;53.330;9.876;2023-04-02T06:18:17;102475.50;;;2.31;100.00
7309;BME280;3695;53.330;9.876;2023-04-02T06:20:45;102482.31;;;2.35;100.00
7309;BME280;3695;53.330;9.876;2023-04-02T06:23:15;102485.00;;;2.35;100.00
7309;BME280;3695;53.330;9.876;2023-04-02T06:25:45;102493.50;;;2.51;100.00
7309;BME280;3695;53.330;9.876;2023-04-02T06:28:16;102499.53;;;2.76;100.00
7309;BME280;3695;53.330;9.876;2023-04-02T06:30:44;102502.00;;;2.68;100.00
7309;BME280;3695;53.330;9.876;2023-04-02T06:33:11;102513.94;;;2.30;100.00
7309;BME280;3695;53.330;9.876;2023-04-02T06:35:41;102509.75;;;2.82;100.00
7309;BME280;3695;53.330;9.876;2023-04-02T06:38:14;102512.47;;;2.60;100.00
7309;BME280;3695;53.330;9.876;2023-04-02T06:40:45;102521.22;;;2.84;100.00
7309;BME280;3695;53.330;9.876;2023-04-02T06:43:17;102521.13;;;3.06;100.00
7309;BME280;3695;53.330;9.876;2023-04-02T06:45:48;102528.91;;;3.09;100.00
7309;BME280;3695;53.330;9.876;2023-04-02T06:48:18;102532.06;;;3.14;100.00
7309;BME280;3695;53.330;9.876;2023-04-02T06:50:48;102537.16;;;3.17;100.00
7309;BME280;3695;53.330;9.876;2023-04-02T06:53:19;102534.81;;;3.24;100.00
7309;BME280;3695;53.330;9.876;2023-04-02T06:55:48;102539.81;;;3.29;100.00
7309;BME280;3695;53.330;9.876;2023-04-02T06:58:17;102531.03;;;3.27;100.00
7309;BME280;3695;53.330;9.876;2023-04-02T07:00:45;102534.34;;;3.19;100.00
7309;BME280;3695;53.330;9.876;2023-04-02T07:03:14;102536.25;;;3.39;100.00
7309;BME280;3695;53.330;9.876;2023-04-02T07:05:41;102538.28;;;3.15;100.00
7309;BME280;3695;53.330;9.876;2023-04-02T07:08:09;102541.88;;;3.57;100.00
7309;BME280;3695;53.330;9.876;2023-04-02T07:10:35;102542.59;;;3.38;100.00
7309;BME280;3695;53.330;9.876;2023-04-02T07:13:02;102536.31;;;3.17;100.00
7309;BME280;3695;53.330;9.876;2023-04-02T07:15:30;102522.97;;;3.38;100.00
7309;BME280;3695;53.330;9.876;2023-04-02T07:17:56;102520.63;;;3.65;100.00
7309;BME280;3695;53.330;9.876;2023-04-02T07:20:25;102533.56;;;3.60;100.00
7309;BME280;3695;53.330;9.876;2023-04-02T07:22:53;102536.97;;;3.62;100.00
7309;BME280;3695;53.330;9.876;2023-04-02T07:25:21;102541.28;;;3.74;100.00
7309;BME280;3695;53.330;9.876;2023-04-02T07:27:48;102543.41;;;3.92;100.00
7309;BME280;3695;53.330;9.876;2023-04-02T07:30:15;102541.94;;;4.08;100.00
7309;BME280;3695;53.330;9.876;2023-04-02T07:32:42;102543.38;;;3.50;100.00
7309;BME280;3695;53.330;9.876;2023-04-02T07:35:09;102552.53;;;3.68;100.00
7309;BME280;3695;53.330;9.876;2023-04-02T07:37:35;102551.81;;;4.08;100.00
7309;BME280;3695;53.330;9.876;2023-04-02T07:40:03;102548.78;;;3.92;100.00
7309;BME280;3695;53.330;9.876;2023-04-02T07:42:31;102553.78;;;4.27;100.00
7309;BME280;3695;53.330;9.876;2023-04-02T07:44:58;102544.66;;;4.18;100.00
7309;BME280;3695;53.330;9.876;2023-04-02T07:47:24;102550.03;;;4.18;100.00
7309;BME280;3695;53.330;9.876;2023-04-02T07:49:51;102548.44;;;4.36;100.00
7309;BME280;3695;53.330;9.876;2023-04-02T07:52:18;102542.91;;;4.07;100.00
7309;BME280;3695;53.330;9.876;2023-04-02T07:54:45;102561.94;;;4.56;100.00
7309;BME280;3695;53.330;9.876;2023-04-02T07:57:12;102558.72;;;4.62;100.00
7309;BME280;3695;53.330;9.876;2023-04-02T07:59:39;102566.03;;;3.99;100.00
7309;BME280;3695;53.330;9.876;2023-04-02T08:02:17;102565.38;;;4.27;100.00
7309;BME280;3695;53.330;9.876;2023-04-02T08:04:44;102562.63;;;3.97;100.00
7309;BME280;3695;53.330;9.876;2023-04-02T08:07:10;102570.38;;;4.41;100.00
7309;BME280;3695;53.330;9.876;2023-04-02T08:09:36;102558.97;;;4.49;100.00
7309;BME280;3695;53.330;9.876;2023-04-02T08:12:03;102565.50;;;4.26;100.00
7309;BME280;3695;53.330;9.876;2023-04-02T08:14:30;102563.81;;;4.65;100.00
7309;BME280;3695;53.330;9.876;2023-04-02T08:16:58;102565.72;;;4.74;100.00
7309;BME280;3695;53.330;9.876;2023-04-02T08:19:24;102570.09;;;4.75;100.00
7309;BME280;3695;53.330;9.876;2023-04-02T08:21:51;102575.50;;;4.94;100.00
7309;BME280;3695;53.330;9.876;2023-04-02T08:24:18;102580.88;;;4.85;100.00
7309;BME280;3695;53.330;9.876;2023-04-02T08:26:45;102578.63;;;4.90;100.00
7309;BME280;3695;53.330;9.876;2023-04-02T08:29:12;102578.41;;;5.22;100.00
7309;BME280;3695;53.330;9.876;2023-04-02T08:31:38;102588.47;;;5.39;100.00
7309;BME280;3695;53.330;9.876;2023-04-02T08:34:06;102583.03;;;5.20;100.00
7309;BME280;3695;53.330;9.876;2023-04-02T08:36:35;102593.69;;;5.31;100.00
7309;BME280;3695;53.330;9.876;2023-04-02T08:39:03;102591.66;;;5.14;100.00
7309;BME280;3695;53.330;9.876;2023-04-02T08:41:35;102603.81;;;5.08;100.00
7309;BME280;3695;53.330;9.876;2023-04-02T08:44:14;102604.09;;;4.95;100.00
7309;BME280;3695;53.330;9.876;2023-04-02T08:46:46;102611.81;;;4.79;100.00
7309;BME280;3695;53.330;9.876;2023-04-02T08:49:19;102615.50;;;5.28;100.00
7309;BME280;3695;53.330;9.876;2023-04-02T08:51:51;102610.31;;;5.05;100.00
7309;BME280;3695;53.330;9.876;2023-04-02T08:54:21;102618.91;;;5.40;100.00
7309;BME280;3695;53.330;9.876;2023-04-02T08:56:52;102621.88;;;5.56;100.00
7309;BME280;3695;53.330;9.876;2023-04-02T08:59:29;102617.78;;;5.42;100.00
7309;BME280;3695;53.330;9.876;2023-04-02T09:02:02;102619.75;;;5.50;100.00
7309;BME280;3695;53.330;9.876;2023-04-02T09:04:33;102641.31;;;5.98;100.00
7309;BME280;3695;53.330;9.876;2023-04-02T09:07:01;102634.94;;;5.80;100.00
7309;BME280;3695;53.330;9.876;2023-04-02T09:09:28;102640.47;;;6.07;100.00
7309;BME280;3695;53.330;9.876;2023-04-02T09:12:00;102646.06;;;5.46;100.00
7309;BME280;3695;53.330;9.876;2023-04-02T09:14:34;102648.56;;;5.19;100.00
7309;BME280;3695;53.330;9.876;2023-04-02T09:17:13;102659.34;;;5.28;100.00
7309;BME280;3695;53.330;9.876;2023-04-02T09:19:47;102653.59;;;5.02;100.00
7309;BME280;3695;53.330;9.876;2023-04-02T09:22:19;102655.31;;;5.03;100.00
7309;BME280;3695;53.330;9.876;2023-04-02T09:24:50;102661.56;;;5.14;100.00
7309;BME280;3695;53.330;9.876;2023-04-02T09:27:18;102668.97;;;4.91;100.00
7309;BME280;3695;53.330;9.876;2023-04-02T09:29:46;102663.63;;;4.70;100.00
7309;BME280;3695;53.330;9.876;2023-04-02T09:32:24;102675.31;;;4.80;100.00
7309;BME280;3695;53.330;9.876;2023-04-02T09:35:07;102670.25;;;4.66;100.00
7309;BME280;3695;53.330;9.876;2023-04-02T09:37:37;102678.53;;;4.74;100.00
7309;BME280;3695;53.330;9.876;2023-04-02T09:40:22;102680.28;;;4.64;100.00
7309;BME280;3695;53.330;9.876;2023-04-02T09:43:01;102679.03;;;4.98;100.00
7309;BME280;3695;53.330;9.876;2023-04-02T09:45:27;102689.63;;;4.90;100.00
7309;BME280;3695;53.330;9.876;2023-04-02T09:47:54;102682.19;;;5.03;100.00
7309;BME280;3695;53.330;9.876;2023-04-02T09:50:27;102694.41;;;5.77;100.00
7309;BME280;3695;53.330;9.876;2023-04-02T09:52:54;102690.91;;;5.95;100.00
7309;BME280;3695;53.330;9.876;2023-04-02T09:55:22;102687.47;;;5.84;100.00
7309;BME280;3695;53.330;9.876;2023-04-02T09:58:07;102684.47;;;5.67;100.00
7309;BME280;3695;53.330;9.876;2023-04-02T10:00:36;102686.66;;;6.03;100.00
7309;BME280;3695;53.330;9.876;2023-04-02T10:03:06;102693.47;;;6.16;100.00
7309;BME280;3695;53.330;9.876;2023-04-02T10:05:45;102679.84;;;6.08;100.00
7309;BME280;3695;53.330;9.876;2023-04-02T10:08:18;102685.03;;;6.58;100.00
7309;BME280;3695;53.330;9.876;2023-04-02T10:10:47;102691.44;;;6.47;100.00
7309;BME280;3695;53.330;9.876;2023-04-02T10:13:22;102694.91;;;6.77;100.00
7309;BME280;3695;53.330;9.876;2023-04-02T10:15:53;102696.56;;;6.87;100.00
7309;BME280;3695;53.330;9.876;2023-04-02T10:18:29;102701.72;;;7.18;100.00
7309;BME280;3695;53.330;9.876;2023-04-02T10:21:00;102706.47;;;7.34;100.00
7309;BME280;3695;53.330;9.876;2023-04-02T10:23:29;102715.59;;;7.50;100.00
7309;BME280;3695;53.330;9.876;2023-04-02T10:26:02;102703.72;;;7.43;100.00
7309;BME280;3695;53.330;9.876;2023-04-02T10:28:43;102719.69;;;7.27;100.00
7309;BME280;3695;53.330;9.876;2023-04-02T10:31:21;102718.19;;;7.15;100.00
7309;BME280;3695;53.330;9.876;2023-04-02T10:33:52;102730.84;;;7.14;100.00
7309;BME280;3695;53.330;9.876;2023-04-02T10:36:29;102718.56;;;6.92;100.00
7309;BME280;3695;53.330;9.876;2023-04-02T10:39:01;102730.28;;;7.11;100.00
7309;BME280;3695;53.330;9.876;2023-04-02T10:41:37;102723.97;;;6.83;100.00
7309;BME280;3695;53.330;9.876;2023-04-02T10:44:27;102728.56;;;6.63;100.00
7309;BME280;3695;53.330;9.876;2023-04-02T10:47:07;102739.34;;;6.44;100.00
7309;BME280;3695;53.330;9.876;2023-04-02T10:49:39;102749.84;;;6.47;100.00
7309;BME280;3695;53.330;9.876;2023-04-02T10:52:13;102752.13;;;6.32;100.00
7309;BME280;3695;53.330;9.876;2023-04-02T10:54:47;102765.72;;;6.50;100.00
7309;BME280;3695;53.330;9.876;2023-04-02T10:57:25;102764.03;;;6.29;100.00
7309;BME280;3695;53.330;9.876;2023-04-02T10:59:55;102757.91;;;6.47;100.00
7309;BME280;3695;53.330;9.876;2023-04-02T11:02:32;102754.88;;;6.88;100.00
7309;BME280;3695;53.330;9.876;2023-04-02T11:05:04;102750.09;;;6.73;100.00
7309;BME280;3695;53.330;9.876;2023-04-02T11:07:43;102771.81;;;6.71;100.00
7309;BME280;3695;53.330;9.876;2023-04-02T11:10:14;102757.47;;;6.61;100.00
7309;BME280;3695;53.330;9.876;2023-04-02T11:12:48;102763.03;;;6.69;100.00
7309;BME280;3695;53.330;9.876;2023-04-02T11:15:18;102762.50;;;7.03;100.00
7309;BME280;3695;53.330;9.876;2023-04-02T11:17:45;102752.31;;;6.97;100.00
7309;BME280;3695;53.330;9.876;2023-04-02T11:20:40;102763.63;;;7.10;100.00
7309;BME280;3695;53.330;9.876;2023-04-02T11:23:10;102764.13;;;6.86;100.00
7309;BME280;3695;53.330;9.876;2023-04-02T11:25:38;102784.41;;;6.80;100.00
7309;BME280;3695;53.330;9.876;2023-04-02T11:28:12;102783.22;;;7.12;100.00
7309;BME280;3695;53.330;9.876;2023-04-02T11:30:40;102781.47;;;7.20;100.00
7309;BME280;3695;53.330;9.876;2023-04-02T11:33:24;102788.53;;;7.31;100.00
7309;BME280;3695;53.330;9.876;2023-04-02T11:35:51;102791.94;;;7.33;100.00
7309;BME280;3695;53.330;9.876;2023-04-02T11:38:50;102787.22;;;7.35;100.00
7309;BME280;3695;53.330;9.876;2023-04-02T11:44:21;102782.50;;;7.47;100.00
7309;BME280;3695;53.330;9.876;2023-04-02T11:46:48;102787.47;;;7.79;100.00
7309;BME280;3695;53.330;9.876;2023-04-02T11:49:39;102797.66;;;7.85;100.00
7309;BME280;3695;53.330;9.876;2023-04-02T11:52:26;102787.72;;;7.21;100.00
7309;BME280;3695;53.330;9.876;2023-04-02T11:54:58;102797.50;;;7.59;100.00
7309;BME280;3695;53.330;9.876;2023-04-02T11:57:39;102805.03;;;8.10;100.00
7309;BME280;3695;53.330;9.876;2023-04-02T12:00:22;102807.59;;;8.30;100.00
7309;BME280;3695;53.330;9.876;2023-04-02T12:02:59;102810.91;;;8.06;100.00
7309;BME280;3695;53.330;9.876;2023-04-02T12:05:32;102819.31;;;8.20;100.00
7309;BME280;3695;53.330;9.876;2023-04-02T12:10:56;102826.38;;;8.49;100.00
7309;BME280;3695;53.330;9.876;2023-04-02T12:13:48;102816.88;;;8.80;100.00
7309;BME280;3695;53.330;9.876;2023-04-02T12:16:16;102822.88;;;8.21;100.00
7309;BME280;3695;53.330;9.876;2023-04-02T12:18:43;102831.03;;;8.57;100.00
7309;BME280;3695;53.330;9.876;2023-04-02T12:21:14;102823.47;;;8.60;100.00
7309;BME280;3695;53.330;9.876;2023-04-02T12:23:44;102829.03;;;8.31;100.00
7309;BME280;3695;53.330;9.876;2023-04-02T12:26:29;102828.13;;;8.23;100.00
7309;BME280;3695;53.330;9.876;2023-04-02T12:29:21;102826.22;;;8.68;100.00
7309;BME280;3695;53.330;9.876;2023-04-02T12:31:48;102836.19;;;8.68;100.00
7309;BME280;3695;53.330;9.876;2023-04-02T12:34:17;102829.84;;;8.41;100.00
7309;BME280;3695;53.330;9.876;2023-04-02T12:36:55;102832.31;;;8.70;100.00
7309;BME280;3695;53.330;9.876;2023-04-02T12:39:23;102838.75;;;9.13;100.00
7309;BME280;3695;53.330;9.876;2023-04-02T12:41:51;102829.94;;;9.11;100.00
7309;BME280;3695;53.330;9.876;2023-04-02T12:44:20;102832.78;;;8.83;100.00
7309;BME280;3695;53.330;9.876;2023-04-02T12:46:48;102842.59;;;8.49;100.00
7309;BME280;3695;53.330;9.876;2023-04-02T12:49:24;102837.03;;;8.68;100.00
7309;BME280;3695;53.330;9.876;2023-04-02T12:51:54;102832.91;;;9.26;100.00
7309;BME280;3695;53.330;9.876;2023-04-02T12:54:21;102834.63;;;9.01;100.00
7309;BME280;3695;53.330;9.876;2023-04-02T12:56:49;102840.34;;;9.24;100.00
7309;BME280;3695;53.330;9.876;2023-04-02T12:59:33;102842.31;;;8.96;100.00
7309;BME280;3695;53.330;9.876;2023-04-02T13:02:02;102851.97;;;8.98;100.00
7309;BME280;3695;53.330;9.876;2023-04-02T13:04:29;102847.88;;;9.12;100.00
7309;BME280;3695;53.330;9.876;2023-04-02T13:06:55;102847.69;;;9.39;100.00
7309;BME280;3695;53.330;9.876;2023-04-02T13:09:29;102846.34;;;8.92;100.00
7309;BME280;3695;53.330;9.876;2023-04-02T13:11:57;102847.81;;;9.56;100.00
7309;BME280;3695;53.330;9.876;2023-04-02T13:14:24;102859.09;;;9.77;100.00
7309;BME280;3695;53.330;9.876;2023-04-02T13:16:52;102848.91;;;9.45;100.00
7309;BME280;3695;53.330;9.876;2023-04-02T13:19:28;102846.13;;;9.29;100.00
7309;BME280;3695;53.330;9.876;2023-04-02T13:21:56;102852.88;;;9.93;100.00
7309;BME280;3695;53.330;9.876;2023-04-02T13:24:24;102865.66;;;10.08;100.00
7309;BME280;3695;53.330;9.876;2023-04-02T13:26:54;102858.91;;;9.44;100.00
7309;BME280;3695;53.330;9.876;2023-04-02T13:29:26;102858.81;;;9.28;100.00
7309;BME280;3695;53.330;9.876;2023-04-02T13:31:56;102863.72;;;9.07;100.00
7309;BME280;3695;53.330;9.876;2023-04-02T13:34:23;102868.69;;;9.71;100.00
7309;BME280;3695;53.330;9.876;2023-04-02T13:36:49;102864.78;;;9.66;100.00
7309;BME280;3695;53.330;9.876;2023-04-02T13:39:16;102876.19;;;9.77;100.00
7309;BME280;3695;53.330;9.876;2023-04-02T13:41:45;102877.75;;;10.22;100.00
7309;BME280;3695;53.330;9.876;2023-04-02T13:44:23;102870.06;;;10.09;100.00
7309;BME280;3695;53.330;9.876;2023-04-02T13:46:52;102874.09;;;9.63;100.00